Time;durP1;ratioP1;P1;durP2;ratioP2;P2;SDS_P1;SDS_P2;PMS_P1;PMS_P2;Temp;Humidity;BMP_temperature;BMP_pressure;BME280_temperature;BME280_humidity;BME280_pressure;Samples;Min_cycle;Max_cycle;Signal;HPM_P1;HPM_P2
2021/01/23 00:04:31;;;;;;;1.15;1.05;;;1.00;99.90;;;;;;20822975;28;20030;-78
2021/01/23 00:14:32;;;;;;;1.20;0.95;;;1.00;99.90;;;;;;20943171;28;20095;-78
2021/01/23 00:24:33;;;;;;;1.00;0.90;;;1.00;99.90;;;;;;21128532;28;20602;-78
2021/01/23 00:34:34;;;;;;;0.90;0.70;;;1.00;99.90;;;;;;20805153;28;20038;-77
2021/01/23 00:44:35;;;;;;;2.05;0.40;;;0.90;99.90;;;;;;20853924;28;20079;-77
2021/01/23 00:54:36;;;;;;;0.45;0.40;;;1.00;99.90;;;;;;20791319;28;20090;-78
2021/01/23 01:04:37;;;;;;;0.40;0.40;;;1.00;99.90;;;;;;20806033;28;20030;-79
2021/01/23 01:14:38;;;;;;;0.95;0.57;;;0.90;99.90;;;;;;20725799;28;20121;-77
2021/01/23 01:24:39;;;;;;;0.60;0.60;;;0.80;99.90;;;;;;20784321;28;20112;-77
2021/01/23 01:34:40;;;;;;;1.17;0.93;;;0.90;99.90;;;;;;20717847;28;20559;-77
2021/01/23 01:44:40;;;;;;;1.10;1.00;;;0.80;99.90;;;;;;20802055;28;20456;-77
2021/01/23 01:54:41;;;;;;;1.40;0.95;;;0.90;99.90;;;;;;20739166;28;20034;-76
2021/01/23 02:05:08;;;;;;;2.35;1.50;;;1.00;99.90;;;;;;20736890;28;20022;-77
2021/01/23 02:15:16;;;;;;;12.10;3.17;;;1.00;99.90;;;;;;20736814;28;20556;-76
2021/01/23 02:25:21;;;;;;;8.82;3.83;;;1.00;99.90;;;;;;20731960;28;20113;-76
2021/01/23 02:35:25;;;;;;;10.15;4.90;;;0.90;99.90;;;;;;20736166;28;20426;-77
2021/01/23 02:45:26;;;;;;;10.70;6.35;;;0.80;99.90;;;;;;20799875;28;20408;-77
2021/01/23 02:55:32;;;;;;;14.57;6.03;;;0.80;99.90;;;;;;20815858;28;20040;-77
2021/01/23 03:05:35;;;;;;;9.60;5.07;;;0.80;99.90;;;;;;20743258;28;20089;-77
2021/01/23 03:15:36;;;;;;;11.35;5.15;;;1.00;99.90;;;;;;20809857;28;20033;-77
2021/01/23 03:25:37;;;;;;;10.35;4.75;;;1.10;99.90;;;;;;20739532;28;20045;-78
2021/01/23 03:35:38;;;;;;;;;;;1.30;99.90;;;;;;20749695;28;20030;-77
2021/01/23 03:45:38;;;;;;;7.50;4.07;;;1.40;99.90;;;;;;20807976;28;19960;-77
2021/01/23 03:55:39;;;;;;;;;;;1.40;99.90;;;;;;20831604;28;20038;-77
2021/01/23 04:05:40;;;;;;;8.45;4.63;;;1.30;99.90;;;;;;20833653;28;19921;-77
2021/01/23 04:15:41;;;;;;;;;;;1.30;99.90;;;;;;20900210;28;20065;-78
2021/01/23 04:25:41;;;;;;;7.90;4.93;;;1.30;99.90;;;;;;20831165;28;19920;-78
2021/01/23 04:35:42;;;;;;;9.43;5.32;;;1.20;99.90;;;;;;20831934;28;20282;-78
2021/01/23 04:45:43;;;;;;;10.05;5.50;;;1.30;99.90;;;;;;20768600;28;20034;-78
2021/01/23 04:55:44;;;;;;;;;;;1.30;99.90;;;;;;20749577;28;20034;-77
2021/01/23 05:06:03;;;;;;;12.18;5.57;;;1.20;99.90;;;;;;20748081;28;19914;-77
2021/01/23 05:16:23;;;;;;;9.63;5.85;;;1.20;99.90;;;;;;20751420;28;20049;-78
2021/01/23 05:26:27;;;;;;;12.35;6.13;;;1.20;99.90;;;;;;20816000;28;20087;-78
2021/01/23 05:36:39;;;;;;;15.93;6.10;;;1.20;99.90;;;;;;20798253;28;20041;-78
2021/01/23 05:46:40;;;;;;;17.38;6.72;;;1.20;99.90;;;;;;20869452;28;20585;-77
2021/01/23 05:56:41;;;;;;;;;;;1.20;99.90;;;;;;20898343;28;20422;-78
2021/01/23 06:06:46;;;;;;;10.90;5.85;;;1.00;99.90;;;;;;20893965;28;19914;-78
2021/01/23 06:16:47;;;;;;;14.98;5.75;;;1.20;99.90;;;;;;20897449;28;20033;-78
2021/01/23 06:26:54;;;;;;;;;;;1.10;99.90;;;;;;20825404;28;20033;-78
2021/01/23 06:37:20;;;;;;;11.60;5.75;;;1.10;99.90;;;;;;20822810;28;19948;-78
2021/01/23 06:47:21;;;;;;;14.85;6.55;;;1.10;99.90;;;;;;20747958;28;20489;-78
2021/01/23 06:57:22;;;;;;;11.73;5.53;;;1.20;99.90;;;;;;20791471;28;20034;-78
2021/01/23 07:07:23;;;;;;;;;;;1.30;99.90;;;;;;20815365;28;20087;-79
2021/01/23 07:17:23;;;;;;;11.85;5.70;;;1.20;99.90;;;;;;20826017;28;19909;-78
2021/01/23 07:27:25;;;;;;;;;;;1.10;99.90;;;;;;20818011;28;20136;-77
2021/01/23 07:37:51;;;;;;;11.73;6.03;;;1.40;99.90;;;;;;20754898;28;19909;-78
2021/01/23 07:48:06;;;;;;;14.18;7.18;;;1.30;99.90;;;;;;20832389;28;20034;-77
2021/01/23 07:58:08;;;;;;;23.98;8.30;;;1.10;99.90;;;;;;20903098;28;20037;-76
2021/01/23 08:08:11;;;;;;;15.25;7.38;;;1.10;99.90;;;;;;20835334;28;20480;-77
2021/01/23 08:18:20;;;;;;;13.25;7.18;;;1.50;99.90;;;;;;20830110;28;20034;-77
2021/01/23 08:28:45;;;;;;;11.98;6.65;;;2.10;99.90;;;;;;20827740;28;20030;-77
2021/01/23 08:38:53;;;;;;;13.80;6.60;;;2.50;99.90;;;;;;20895354;28;20029;-77
2021/01/23 08:48:56;;;;;;;19.80;9.82;;;2.40;99.90;;;;;;20757137;28;20414;-78
2021/01/23 08:58:57;;;;;;;16.70;7.85;;;2.70;99.90;;;;;;20820751;28;20034;-77
2021/01/23 09:08:58;;;;;;;35.20;8.00;;;2.90;99.90;;;;;;20754416;28;20074;-77
2021/01/23 09:18:59;;;;;;;39.35;6.65;;;2.40;99.90;;;;;;20818876;28;20095;-78
2021/01/23 09:29:00;;;;;;;;;;;2.20;99.90;;;;;;20799356;28;20121;-77
2021/01/23 09:39:01;;;;;;;11.38;7.18;;;2.40;99.90;;;;;;20817897;28;19913;-78
2021/01/23 09:49:02;;;;;;;13.10;7.13;;;2.30;99.90;;;;;;20816262;28;20026;-78
2021/01/23 09:59:03;;;;;;;11.70;6.45;;;3.10;99.90;;;;;;20801693;28;20408;-78
2021/01/23 10:09:04;;;;;;;16.00;8.07;;;3.30;99.90;;;;;;20742581;28;20022;-78
2021/01/23 10:19:05;;;;;;;17.02;8.27;;;2.80;99.90;;;;;;20745028;28;20026;-78
2021/01/23 10:29:06;;;;;;;13.45;7.80;;;3.20;99.90;;;;;;20743895;28;20495;-76
2021/01/23 10:39:07;;;;;;;13.50;8.67;;;3.50;99.90;;;;;;20736577;28;20026;-76
2021/01/23 10:49:07;;;;;;;19.60;9.93;;;4.00;99.90;;;;;;20745890;28;20484;-75
2021/01/23 10:59:08;;;;;;;18.70;10.73;;;4.20;99.90;;;;;;20737078;28;20569;-77
2021/01/23 11:09:12;;;;;;;18.52;10.27;;;3.40;99.90;;;;;;20802542;28;20508;-78
2021/01/23 11:19:13;;;;;;;11.83;7.47;;;4.00;99.90;;;;;;20736939;28;20056;-78
2021/01/23 11:29:14;;;;;;;9.90;6.30;;;4.60;99.90;;;;;;20735333;28;20281;-78
2021/01/23 11:39:15;;;;;;;10.97;6.13;;;5.10;99.90;;;;;;20746018;28;20032;-77
2021/01/23 11:49:16;;;;;;;11.43;6.90;;;5.40;99.90;;;;;;20791489;28;20033;-77
2021/01/23 11:59:17;;;;;;;9.13;5.13;;;5.50;99.90;;;;;;20755218;28;20033;-77
2021/01/23 12:09:18;;;;;;;7.28;4.90;;;5.70;99.90;;;;;;20762436;28;20541;-76
2021/01/23 12:19:19;;;;;;;9.10;5.43;;;6.20;99.90;;;;;;20795638;28;20038;-77
2021/01/23 12:29:20;;;;;;;7.93;5.37;;;8.60;99.90;;;;;;20739730;28;20501;-79
2021/01/23 12:39:21;;;;;;;9.90;5.80;;;7.90;99.90;;;;;;20736046;28;20038;-77
2021/01/23 12:49:22;;;;;;;6.87;5.10;;;6.20;99.90;;;;;;20791846;28;20496;-76
2021/01/23 12:59:23;;;;;;;7.63;4.43;;;7.30;99.90;;;;;;20775256;28;20046;-76
2021/01/23 13:09:24;;;;;;;9.27;4.60;;;6.00;99.90;;;;;;20788771;28;20045;-77
2021/01/23 13:19:28;;;;;;;6.27;4.13;;;6.20;99.90;;;;;;20787840;28;20042;-76
2021/01/23 13:29:32;;;;;;;9.98;3.70;;;6.50;99.90;;;;;;20738732;28;20449;-79
2021/01/23 13:40:07;;;;;;;5.55;3.88;;;6.00;99.90;;;;;;20756626;28;20050;-78
2021/01/23 13:50:11;;;;;;;6.07;4.07;;;5.10;99.90;;;;;;20806088;28;20400;-78
2021/01/23 14:00:14;;;;;;;5.57;3.90;;;5.20;99.90;;;;;;20842618;28;20048;-79
2021/01/23 14:10:16;;;;;;;5.72;3.92;;;4.80;99.90;;;;;;20843082;28;20549;-77
2021/01/23 14:20:21;;;;;;;5.93;3.17;;;4.00;99.90;;;;;;20768130;28;20079;-78
2021/01/23 14:30:22;;;;;;;34.35;13.27;;;4.20;99.90;;;;;;20807229;28;20527;-77
2021/01/23 14:40:23;;;;;;;6.05;3.97;;;5.00;99.90;;;;;;20735694;28;20403;-75
2021/01/23 14:50:24;;;;;;;3.53;2.53;;;5.00;99.90;;;;;;20812917;28;20030;-78
2021/01/23 15:00:25;;;;;;;4.30;3.47;;;3.80;99.90;;;;;;20782047;28;20083;-76
2021/01/23 15:10:26;;;;;;;6.30;3.27;;;3.80;99.90;;;;;;20712301;28;20492;-77
2021/01/23 15:20:27;;;;;;;7.50;4.07;;;3.70;99.90;;;;;;20762281;28;20034;-77
2021/01/23 15:30:28;;;;;;;6.00;3.50;;;3.40;99.90;;;;;;20722302;28;20030;-74
2021/01/23 15:40:29;;;;;;;5.47;3.00;;;3.30;99.90;;;;;;20804677;28;20133;-76
2021/01/23 15:50:30;;;;;;;6.22;3.47;;;3.40;99.90;;;;;;20795260;28;20511;-78
2021/01/23 16:00:31;;;;;;;5.75;3.47;;;3.00;99.90;;;;;;20802195;28;20050;-76
2021/01/23 16:10:32;;;;;;;5.47;3.03;;;2.80;99.90;;;;;;20737079;28;20038;-79
2021/01/23 16:20:33;;;;;;;9.07;3.70;;;2.80;99.90;;;;;;20740014;28;20042;-77
2021/01/23 16:30:34;;;;;;;9.30;5.03;;;2.60;99.90;;;;;;20721052;28;20038;-77
2021/01/23 16:40:36;;;;;;;;;;;2.40;99.90;;;;;;20739557;28;20117;-76
2021/01/23 16:50:37;;;;;;;7.50;4.20;;;2.50;99.90;;;;;;20802224;28;20451;-78
2021/01/23 17:00:37;;;;;;;12.95;5.32;;;2.50;99.90;;;;;;20802984;28;20094;-77
2021/01/23 17:10:38;;;;;;;15.77;8.10;;;2.50;99.90;;;;;;20868345;28;20490;-77
2021/01/23 17:20:39;;;;;;;10.85;3.78;;;2.40;99.90;;;;;;20865306;28;20522;-77
2021/01/23 17:30:40;;;;;;;;;;;2.30;99.90;;;;;;21009464;28;20031;-76
2021/01/23 17:40:41;;;;;;;7.90;4.75;;;2.30;99.90;;;;;;21029515;28;19917;-77
2021/01/23 17:50:42;;;;;;;10.27;4.87;;;2.30;99.90;;;;;;20632049;28;20154;-79
2021/01/23 18:00:43;;;;;;;14.20;6.50;;;2.10;99.90;;;;;;20707898;28;20342;-78
2021/01/23 18:10:44;;;;;;;;;;;1.70;99.90;;;;;;20650122;28;20038;-80
2021/01/23 18:20:47;;;;;;;8.80;5.77;;;1.80;99.90;;;;;;20665287;28;20004;-78
2021/01/23 18:30:48;;;;;;;11.93;7.05;;;1.70;99.90;;;;;;20666455;28;20329;-78
2021/01/23 18:40:49;;;;;;;;;;;1.60;99.90;;;;;;20802632;28;20064;-78
2021/01/23 18:50:50;;;;;;;13.25;7.90;;;1.60;99.90;;;;;;20888012;28;19917;-79
2021/01/23 19:00:51;;;;;;;20.38;9.63;;;1.80;99.90;;;;;;20870131;28;20759;-80
2021/01/23 19:10:52;;;;;;;11.63;6.72;;;2.00;99.90;;;;;;20735052;28;20056;-78
2021/01/23 19:20:53;;;;;;;10.45;6.80;;;2.00;99.90;;;;;;20782964;22;20032;-80
2021/01/23 19:30:54;;;;;;;15.80;7.78;;;2.00;99.90;;;;;;20942511;28;20044;-78
2021/01/23 19:40:54;;;;;;;;;;;1.50;99.90;;;;;;20946800;28;20044;-79
2021/01/23 19:50:55;;;;;;;17.60;9.32;;;1.40;99.90;;;;;;20984615;28;19921;-79
2021/01/23 20:00:56;;;;;;;;;;;1.50;99.90;;;;;;21010005;28;20118;-78
2021/01/23 20:10:57;;;;;;;19.52;10.13;;;1.40;99.90;;;;;;20936661;28;19951;-78
2021/01/23 20:20:58;;;;;;;;;;;1.50;99.90;;;;;;20915497;28;20036;-78
2021/01/23 20:30:59;;;;;;;18.73;10.85;;;1.40;99.90;;;;;;21037300;28;20010;-78
2021/01/23 20:41:00;;;;;;;;;;;1.30;99.90;;;;;;21018971;28;20060;-79
2021/01/23 20:51:01;;;;;;;17.17;10.75;;;1.10;99.90;;;;;;20991677;28;19920;-80
2021/01/23 21:01:03;;;;;;;;;;;1.10;99.90;;;;;;21003281;28;20028;-79
2021/01/23 21:11:03;;;;;;;21.52;12.02;;;1.20;99.90;;;;;;20996666;28;20419;-79
2021/01/23 21:21:07;;;;;;;14.82;9.23;;;1.20;99.90;;;;;;20957579;28;20091;-78
2021/01/23 21:31:08;;;;;;;19.60;10.07;;;1.40;99.90;;;;;;20913631;28;20028;-79
2021/01/23 21:41:09;;;;;;;20.80;12.25;;;1.40;99.90;;;;;;20948769;28;20032;-79
2021/01/23 21:51:10;;;;;;;12.52;7.88;;;1.40;99.90;;;;;;20906350;28;20028;-78
2021/01/23 22:01:11;;;;;;;20.05;10.13;;;1.50;99.90;;;;;;20896121;28;20033;-78
2021/01/23 22:11:12;;;;;;;;;;;1.30;99.90;;;;;;20905316;28;20075;-77
2021/01/23 22:21:13;;;;;;;26.40;13.73;;;1.00;99.90;;;;;;20913947;28;19916;-78
2021/01/23 22:31:13;;;;;;;;;;;1.10;99.90;;;;;;20999670;28;20028;-78
2021/01/23 22:41:14;;;;;;;23.30;11.95;;;1.10;99.90;;;;;;20975813;28;19912;-78
2021/01/23 22:51:15;;;;;;;37.35;14.68;;;1.10;99.90;;;;;;21026293;28;20032;-78
2021/01/23 23:01:16;;;;;;;17.15;9.02;;;1.20;99.90;;;;;;20988376;28;20025;-78
2021/01/23 23:11:17;;;;;;;;;;;1.30;99.90;;;;;;20958538;28;20047;-78
2021/01/23 23:21:18;;;;;;;5.90;3.08;;;1.50;99.90;;;;;;21021451;28;19982;-78
2021/01/23 23:31:19;;;;;;;;;;;1.70;99.90;;;;;;20982797;28;20041;-78
2021/01/23 23:41:19;;;;;;;2.58;0.93;;;2.10;99.90;;;;;;20900341;28;19916;-78
2021/01/23 23:51:20;;;;;;;1.58;0.70;;;2.30;99.90;;;;;;20898171;28;20041;-79
